Time;durP1;ratioP1;P1;durP2;ratioP2;P2;SDS_P1;SDS_P2;PMS_P1;PMS_P2;Temp;Humidity;BMP_temperature;BMP_pressure;BME280_temperature;BME280_humidity;BME280_pressure;Samples;Min_cycle;Max_cycle;Signal;HPM_P1;HPM_P2
2023/10/28 00:01:02;;;;;;;2.35;0.22;;;11.10;99.90;;;;;;4983224;28;87390;-74
2023/10/28 00:03:29;;;;;;;1.50;0.35;;;11.10;99.90;;;;;;4980398;28;89348;-74
2023/10/28 00:05:55;;;;;;;5.95;0.40;;;11.10;99.90;;;;;;4996681;28;87229;-76
2023/10/28 00:08:21;;;;;;;3.58;0.40;;;11.10;99.90;;;;;;4980599;28;86522;-74
2023/10/28 00:10:48;;;;;;;2.63;0.22;;;11.10;99.90;;;;;;4982069;28;87589;-73
2023/10/28 00:13:14;;;;;;;1.23;0.47;;;11.10;99.90;;;;;;4982292;28;89934;-76
2023/10/28 00:15:40;;;;;;;1.50;0.20;;;11.10;99.90;;;;;;4987455;28;86401;-76
2023/10/28 00:18:06;;;;;;;1.13;0.32;;;11.10;99.90;;;;;;4982955;28;86560;-76
2023/10/28 00:20:32;;;;;;;0.65;0.30;;;11.10;99.90;;;;;;4979653;28;90114;-76
2023/10/28 00:22:58;;;;;;;0.40;0.20;;;11.00;99.90;;;;;;4986188;28;88148;-73
2023/10/28 00:25:32;;;;;;;2.08;0.32;;;11.00;99.90;;;;;;4971238;28;86254;-75
2023/10/28 00:27:58;;;;;;;1.77;0.30;;;11.00;99.90;;;;;;4981704;28;86505;-73
2023/10/28 00:30:24;;;;;;;1.25;0.43;;;11.00;99.90;;;;;;4980621;28;90715;-72
2023/10/28 00:32:57;;;;;;;2.35;0.47;;;11.00;99.90;;;;;;4981329;28;88968;-74
2023/10/28 00:35:23;;;;;;;1.63;0.30;;;11.00;99.90;;;;;;4984658;28;86403;-73
2023/10/28 00:37:51;;;;;;;4.45;0.45;;;11.00;99.90;;;;;;4997813;28;86399;-74
2023/10/28 00:40:17;;;;;;;6.97;1.45;;;11.00;99.90;;;;;;4980085;28;90764;-74
2023/10/28 00:42:51;;;;;;;3.92;0.47;;;11.00;99.90;;;;;;4981677;28;87510;-74
2023/10/28 00:45:16;;;;;;;0.38;0.20;;;11.00;99.90;;;;;;4982412;28;87576;-73
2023/10/28 00:47:44;;;;;;;1.65;0.28;;;11.00;99.90;;;;;;4983756;28;86526;-73
2023/10/28 00:50:14;;;;;;;3.22;0.45;;;11.00;99.90;;;;;;4980141;28;90436;-72
2023/10/28 00:52:42;;;;;;;1.20;0.30;;;11.00;99.90;;;;;;4980307;28;90601;-73
2023/10/28 00:55:10;;;;;;;2.20;0.38;;;11.00;99.90;;;;;;4982108;28;86537;-76
2023/10/28 00:57:36;;;;;;;0.57;0.40;;;11.00;99.90;;;;;;4981361;28;88220;-73
2023/10/28 01:00:03;;;;;;;1.17;0.30;;;11.00;99.90;;;;;;4980609;28;90929;-73
2023/10/28 01:02:29;;;;;;;1.65;0.68;;;11.00;99.90;;;;;;4980849;28;89739;-73
2023/10/28 01:04:54;;;;;;;4.07;0.50;;;11.00;99.90;;;;;;4980351;28;87086;-73
2023/10/28 01:07:21;;;;;;;3.38;0.43;;;10.90;99.90;;;;;;4980564;28;87017;-72
2023/10/28 01:09:50;;;;;;;2.15;0.52;;;10.90;99.90;;;;;;4995939;28;90157;-74
2023/10/28 01:12:26;;;;;;;1.58;0.50;;;10.90;99.90;;;;;;4977839;28;90408;-76
2023/10/28 01:14:53;;;;;;;1.98;0.50;;;10.90;99.90;;;;;;4979744;28;87005;-73
2023/10/28 01:17:21;;;;;;;1.00;0.50;;;10.90;99.90;;;;;;4980470;28;86726;-73
2023/10/28 01:19:47;;;;;;;2.42;0.57;;;10.90;99.90;;;;;;4982042;28;90971;-73
2023/10/28 01:22:13;;;;;;;1.90;0.50;;;10.90;99.90;;;;;;4984410;28;90146;-73
2023/10/28 01:24:39;;;;;;;2.35;0.50;;;10.90;99.90;;;;;;4983615;28;86763;-73
2023/10/28 01:27:05;;;;;;;2.03;0.40;;;10.90;99.90;;;;;;4983790;28;86836;-76
2023/10/28 01:29:32;;;;;;;1.92;0.60;;;10.90;99.90;;;;;;4985756;28;86877;-72
2023/10/28 01:32:02;;;;;;;2.75;0.60;;;10.90;99.90;;;;;;4982049;28;94599;-73
2023/10/28 01:34:28;;;;;;;2.05;0.50;;;10.90;99.90;;;;;;4982871;28;87623;-73
2023/10/28 01:36:56;;;;;;;3.50;0.70;;;10.90;99.90;;;;;;4985427;28;86598;-76
2023/10/28 01:39:21;;;;;;;1.10;0.50;;;10.90;99.90;;;;;;4983974;28;90252;-73
2023/10/28 01:41:47;;;;;;;1.75;0.80;;;10.80;99.90;;;;;;4985443;28;87114;-76
2023/10/28 01:44:14;;;;;;;3.05;0.90;;;10.80;99.90;;;;;;4985900;28;87009;-73
2023/10/28 01:46:42;;;;;;;3.30;1.15;;;10.70;99.90;;;;;;4985398;28;86538;-76
2023/10/28 01:49:08;;;;;;;2.45;0.80;;;10.70;99.90;;;;;;4982240;28;91119;-72
2023/10/28 01:51:34;;;;;;;2.92;0.90;;;10.70;99.90;;;;;;4983537;28;87550;-76
2023/10/28 01:54:17;;;;;;;4.50;0.70;;;10.60;99.90;;;;;;4982281;28;86521;-72
2023/10/28 01:56:43;;;;;;;1.90;0.73;;;10.60;99.90;;;;;;5000265;28;87163;-74
2023/10/28 01:59:14;;;;;;;3.10;0.77;;;10.60;99.90;;;;;;4984635;28;90274;-73
2023/10/28 02:01:40;;;;;;;5.07;0.90;;;10.50;99.90;;;;;;4985484;28;86576;-76
2023/10/28 02:04:06;;;;;;;2.20;0.82;;;10.50;99.90;;;;;;5000037;28;86481;-74
2023/10/28 02:06:38;;;;;;;2.08;0.70;;;10.50;99.90;;;;;;4983105;28;86557;-73
2023/10/28 02:09:03;;;;;;;5.57;1.08;;;10.40;99.90;;;;;;4982522;28;90717;-75
2023/10/28 02:11:29;;;;;;;3.53;0.93;;;10.40;99.90;;;;;;4985222;28;86330;-75
2023/10/28 02:13:54;;;;;;;2.88;0.70;;;10.30;99.90;;;;;;4983444;28;86981;-72
2023/10/28 02:16:20;;;;;;;2.05;0.90;;;10.30;99.90;;;;;;4984347;28;86605;-75
2023/10/28 02:18:47;;;;;;;3.83;0.80;;;10.30;99.90;;;;;;4983933;28;87278;-74
2023/10/28 02:21:14;;;;;;;4.97;1.30;;;10.30;99.90;;;;;;4984187;28;87224;-76
2023/10/28 02:23:40;;;;;;;5.15;1.00;;;10.20;99.90;;;;;;4998489;28;87166;-75
2023/10/28 02:26:05;;;;;;;3.13;1.00;;;10.20;99.90;;;;;;4982127;28;86519;-74
2023/10/28 02:28:31;;;;;;;4.50;0.95;;;10.20;99.90;;;;;;4982881;28;86353;-75
2023/10/28 02:30:57;;;;;;;6.07;1.20;;;10.20;99.90;;;;;;4983250;28;89588;-73
2023/10/28 02:33:23;;;;;;;6.55;1.15;;;10.10;99.90;;;;;;4985131;28;86739;-73
2023/10/28 02:35:48;;;;;;;3.15;1.13;;;10.10;99.90;;;;;;4982096;28;86492;-76
2023/10/28 02:38:15;;;;;;;3.58;1.55;;;10.20;99.90;;;;;;4984014;28;89576;-73
2023/10/28 02:40:46;;;;;;;4.38;1.67;;;10.20;99.90;;;;;;4983779;28;87211;-74
2023/10/28 02:43:11;;;;;;;7.15;1.10;;;10.20;99.90;;;;;;4982265;28;86957;-73
2023/10/28 02:45:38;;;;;;;2.58;1.02;;;10.20;99.90;;;;;;4983169;28;86492;-72
2023/10/28 02:48:04;;;;;;;4.75;1.00;;;10.20;99.90;;;;;;4981058;28;90343;-73
2023/10/28 02:50:29;;;;;;;6.65;1.65;;;10.20;99.90;;;;;;4999048;28;89291;-74
2023/10/28 02:52:59;;;;;;;2.90;1.33;;;10.20;99.90;;;;;;4984087;28;86454;-70
2023/10/28 02:55:27;;;;;;;5.07;1.40;;;10.30;99.90;;;;;;4982064;28;86513;-73
2023/10/28 02:57:53;;;;;;;3.92;1.40;;;10.30;99.90;;;;;;4982535;28;88286;-74
2023/10/28 03:00:19;;;;;;;3.47;1.23;;;10.30;99.90;;;;;;4984226;28;87730;-73
2023/10/28 03:02:44;;;;;;;4.93;1.10;;;10.30;99.90;;;;;;4983808;28;86845;-71
2023/10/28 03:05:10;;;;;;;4.50;1.27;;;10.40;99.90;;;;;;4983590;28;86701;-71
2023/10/28 03:07:35;;;;;;;2.45;1.10;;;10.40;99.90;;;;;;4984742;28;88177;-71
2023/10/28 03:10:01;;;;;;;5.80;1.30;;;10.40;99.90;;;;;;4982600;28;88429;-73
2023/10/28 03:12:27;;;;;;;4.45;1.02;;;10.40;99.90;;;;;;4983871;28;86459;-70
2023/10/28 03:14:55;;;;;;;7.47;1.75;;;10.40;99.90;;;;;;4983174;28;86905;-73
2023/10/28 03:17:21;;;;;;;6.55;1.67;;;10.40;99.90;;;;;;4998575;28;90546;-71
2023/10/28 03:19:46;;;;;;;2.85;1.20;;;10.40;99.90;;;;;;4981857;28;89878;-72
2023/10/28 03:22:12;;;;;;;8.15;1.30;;;10.50;99.90;;;;;;4982456;28;86357;-72
2023/10/28 03:24:38;;;;;;;6.68;1.50;;;10.50;99.90;;;;;;4988892;28;86387;-72
2023/10/28 03:27:04;;;;;;;5.40;1.10;;;10.50;99.90;;;;;;4984588;28;87001;-73
2023/10/28 03:29:29;;;;;;;7.18;1.40;;;10.50;99.90;;;;;;4981378;28;91733;-71
2023/10/28 03:31:55;;;;;;;4.47;1.45;;;10.60;99.90;;;;;;4981006;28;86725;-74
2023/10/28 03:34:20;;;;;;;6.10;1.80;;;10.60;99.90;;;;;;4981727;28;86698;-71
2023/10/28 03:36:46;;;;;;;5.20;1.25;;;10.60;99.90;;;;;;4984364;28;86559;-70
2023/10/28 03:39:12;;;;;;;7.28;1.80;;;10.60;99.90;;;;;;4984174;28;86963;-73
2023/10/28 03:41:39;;;;;;;3.25;1.10;;;10.60;99.90;;;;;;4984157;28;86193;-72
2023/10/28 03:44:04;;;;;;;4.60;1.27;;;10.70;99.90;;;;;;4983070;28;86672;-72
2023/10/28 03:46:30;;;;;;;4.60;1.20;;;10.70;99.90;;;;;;4983834;28;87128;-73
2023/10/28 03:48:56;;;;;;;8.30;2.55;;;10.70;99.90;;;;;;4998602;28;89383;-73
2023/10/28 03:51:21;;;;;;;9.18;1.50;;;10.70;99.90;;;;;;4982752;28;86324;-74
2023/10/28 03:53:47;;;;;;;7.72;2.55;;;10.70;99.90;;;;;;4981954;28;86233;-75
2023/10/28 03:56:13;;;;;;;8.20;2.17;;;10.70;99.90;;;;;;4983515;28;87040;-74
2023/10/28 03:58:38;;;;;;;5.13;1.35;;;10.70;99.90;;;;;;4982623;28;87817;-75
2023/10/28 04:01:04;;;;;;;5.10;1.35;;;10.70;99.90;;;;;;4982500;28;86357;-74
2023/10/28 04:03:29;;;;;;;5.70;1.50;;;10.70;99.90;;;;;;4983347;28;86371;-76
2023/10/28 04:05:55;;;;;;;6.53;1.45;;;10.70;99.90;;;;;;4973114;28;90847;-76
2023/10/28 04:08:21;;;;;;;6.28;1.23;;;10.70;99.90;;;;;;4994978;28;86936;-74
2023/10/28 04:10:46;;;;;;;4.85;1.73;;;10.70;99.90;;;;;;4983770;28;86436;-74
2023/10/28 04:13:14;;;;;;;7.80;1.75;;;10.70;99.90;;;;;;4981302;28;87098;-73
2023/10/28 04:15:40;;;;;;;13.00;2.00;;;10.80;99.90;;;;;;4981180;28;90304;-76
2023/10/28 04:18:06;;;;;;;4.60;1.70;;;10.70;99.90;;;;;;4980274;28;90319;-74
2023/10/28 04:20:33;;;;;;;8.13;2.75;;;10.80;99.90;;;;;;4980937;28;87058;-74
2023/10/28 04:22:58;;;;;;;4.18;1.58;;;10.80;99.90;;;;;;4982291;28;86331;-76
2023/10/28 04:25:24;;;;;;;3.28;1.45;;;10.80;99.90;;;;;;4982583;28;88540;-76
2023/10/28 04:27:50;;;;;;;9.48;1.60;;;10.80;99.90;;;;;;4982190;28;87400;-73
2023/10/28 04:30:19;;;;;;;7.00;1.42;;;10.80;99.90;;;;;;4981102;28;86697;-74
2023/10/28 04:32:44;;;;;;;4.57;1.50;;;10.80;99.90;;;;;;4981624;28;87057;-76
2023/10/28 04:35:10;;;;;;;4.70;1.38;;;10.90;99.90;;;;;;4981776;28;89822;-74
2023/10/28 04:37:36;;;;;;;5.30;1.42;;;10.90;99.90;;;;;;4981257;28;90322;-74
2023/10/28 04:40:05;;;;;;;2.58;1.10;;;10.90;99.90;;;;;;4997403;28;87097;-73
2023/10/28 04:42:31;;;;;;;2.78;1.08;;;10.90;99.90;;;;;;4980513;28;86512;-76
2023/10/28 04:44:57;;;;;;;7.85;1.48;;;10.90;99.90;;;;;;4983464;28;90750;-74
2023/10/28 04:47:24;;;;;;;5.05;1.08;;;10.90;99.90;;;;;;4983398;28;87069;-75
2023/10/28 04:49:50;;;;;;;6.38;1.05;;;10.90;99.90;;;;;;4980841;28;86920;-74
2023/10/28 04:52:20;;;;;;;5.63;1.00;;;10.90;99.90;;;;;;4983445;28;87133;-76
2023/10/28 04:54:49;;;;;;;4.18;1.42;;;10.80;99.90;;;;;;4983324;28;90445;-73
2023/10/28 04:57:15;;;;;;;5.65;0.95;;;10.90;99.90;;;;;;4985519;28;86877;-74
2023/10/28 04:59:41;;;;;;;5.35;1.00;;;10.80;99.90;;;;;;4977476;28;93928;-75
2023/10/28 05:02:06;;;;;;;2.13;1.05;;;10.80;99.90;;;;;;4987758;28;86470;-76
2023/10/28 05:04:35;;;;;;;3.17;1.00;;;10.80;99.90;;;;;;4984340;28;90947;-75
2023/10/28 05:07:01;;;;;;;4.10;0.90;;;10.80;99.90;;;;;;4983924;28;89894;-73
2023/10/28 05:09:28;;;;;;;6.00;1.05;;;10.80;99.90;;;;;;4986319;28;86106;-77
2023/10/28 05:11:56;;;;;;;2.50;0.75;;;10.80;99.90;;;;;;4984758;28;86748;-71
2023/10/28 05:14:24;;;;;;;2.70;0.70;;;10.80;99.90;;;;;;4985295;28;90606;-72
2023/10/28 05:16:52;;;;;;;5.65;0.98;;;10.80;99.90;;;;;;4991096;28;89796;-71
2023/10/28 05:19:20;;;;;;;3.70;0.77;;;10.80;99.90;;;;;;4983308;28;86340;-72
2023/10/28 05:21:46;;;;;;;2.88;0.70;;;10.90;99.90;;;;;;4984603;28;87113;-73
2023/10/28 05:24:12;;;;;;;4.75;0.90;;;10.90;99.90;;;;;;4986033;28;87400;-71
2023/10/28 05:26:42;;;;;;;7.40;1.30;;;10.90;99.90;;;;;;4999910;28;90764;-71
2023/10/28 05:29:08;;;;;;;2.15;0.63;;;11.00;99.90;;;;;;4984844;28;88667;-72
2023/10/28 05:31:41;;;;;;;3.47;0.82;;;11.00;99.90;;;;;;4984037;28;87884;-73
2023/10/28 05:34:07;;;;;;;3.78;0.63;;;11.00;99.90;;;;;;4981725;28;90288;-72
2023/10/28 05:36:32;;;;;;;3.92;0.82;;;11.00;99.90;;;;;;4979881;28;88952;-73
2023/10/28 05:38:59;;;;;;;2.67;0.60;;;11.00;99.90;;;;;;4981713;28;89740;-72
2023/10/28 05:41:24;;;;;;;5.93;0.77;;;11.10;99.90;;;;;;4983603;28;88096;-72
2023/10/28 05:43:50;;;;;;;4.63;0.70;;;11.10;99.90;;;;;;4983717;28;87287;-73
2023/10/28 05:46:17;;;;;;;3.70;0.68;;;11.10;99.90;;;;;;4983668;28;89838;-73
2023/10/28 05:48:43;;;;;;;1.33;0.55;;;11.10;99.90;;;;;;4983649;28;88031;-73
2023/10/28 05:51:26;;;;;;;4.32;1.45;;;11.10;99.90;;;;;;4983102;28;87678;-72
2023/10/28 05:53:52;;;;;;;2.63;0.75;;;11.10;99.90;;;;;;4981980;28;90590;-77
2023/10/28 05:56:17;;;;;;;6.30;1.20;;;11.20;99.90;;;;;;4982664;28;90606;-73
2023/10/28 05:58:45;;;;;;;3.42;0.70;;;11.20;99.90;;;;;;4982346;28;92192;-75
2023/10/28 06:01:13;;;;;;;2.40;1.15;;;11.20;99.90;;;;;;4981152;28;89133;-74
2023/10/28 06:03:38;;;;;;;2.47;0.73;;;11.20;99.90;;;;;;4982495;28;89942;-73
2023/10/28 06:06:05;;;;;;;4.93;0.75;;;11.20;99.90;;;;;;4982400;28;89059;-73
2023/10/28 06:08:31;;;;;;;2.50;1.15;;;11.20;99.90;;;;;;4980843;28;90236;-75
2023/10/28 06:10:56;;;;;;;4.18;0.77;;;11.20;99.90;;;;;;4983917;28;88642;-75
2023/10/28 06:13:23;;;;;;;3.17;0.65;;;11.20;99.90;;;;;;4981920;28;87683;-76
2023/10/28 06:15:48;;;;;;;2.47;0.68;;;11.20;99.90;;;;;;4981514;28;91218;-76
2023/10/28 06:18:14;;;;;;;6.20;0.70;;;11.20;99.90;;;;;;4981380;28;90865;-76
2023/10/28 06:20:40;;;;;;;4.78;1.05;;;11.30;99.90;;;;;;4981717;28;87530;-76
2023/10/28 06:23:06;;;;;;;2.78;0.55;;;11.30;99.90;;;;;;4982643;28;90066;-74
2023/10/28 06:25:37;;;;;;;3.72;0.47;;;11.30;99.90;;;;;;4980731;28;92563;-73
2023/10/28 06:28:05;;;;;;;4.18;0.90;;;11.30;99.90;;;;;;4981863;28;92213;-74
2023/10/28 06:30:36;;;;;;;8.35;0.80;;;11.30;99.90;;;;;;4980849;28;88037;-76
2023/10/28 06:33:02;;;;;;;4.93;1.13;;;11.30;99.90;;;;;;4982075;28;90301;-74
2023/10/28 06:35:31;;;;;;;5.75;0.60;;;11.40;99.90;;;;;;4998011;28;91311;-74
2023/10/28 06:37:57;;;;;;;5.20;0.90;;;11.40;99.90;;;;;;4982616;28;92171;-74
2023/10/28 06:40:24;;;;;;;3.63;1.23;;;11.40;99.90;;;;;;4983944;28;88033;-74
2023/10/28 06:42:50;;;;;;;4.32;0.82;;;11.40;99.90;;;;;;4984107;28;88099;-74
2023/10/28 06:45:17;;;;;;;3.92;0.90;;;11.40;99.90;;;;;;4980671;28;91922;-74
2023/10/28 06:47:43;;;;;;;5.10;1.17;;;11.40;99.90;;;;;;4982189;28;91167;-74
2023/10/28 06:50:09;;;;;;;5.55;0.90;;;11.40;99.90;;;;;;4981584;28;88464;-74
2023/10/28 06:52:36;;;;;;;6.13;1.80;;;11.40;99.90;;;;;;4983256;28;87488;-71
2023/10/28 06:55:02;;;;;;;9.63;1.35;;;11.50;99.90;;;;;;4982468;28;88424;-75
2023/10/28 06:57:30;;;;;;;4.30;1.00;;;11.50;99.90;;;;;;4982549;28;88371;-74
2023/10/28 06:59:57;;;;;;;7.53;0.90;;;11.50;99.90;;;;;;4980467;28;87700;-74
2023/10/28 07:02:23;;;;;;;4.10;0.70;;;11.60;99.90;;;;;;4980977;28;89889;-73
2023/10/28 07:04:57;;;;;;;5.43;1.08;;;11.60;99.90;;;;;;4981799;28;87898;-74
2023/10/28 07:07:23;;;;;;;;;;;11.60;99.90;;;;;;4988012;28;91161;-74
2023/10/28 07:09:48;;;;;;;8.43;1.20;;;11.60;99.90;;;;;;4982298;28;88242;-74
2023/10/28 07:12:14;;;;;;;6.63;0.77;;;11.70;99.90;;;;;;4980177;28;90519;-74
2023/10/28 07:14:42;;;;;;;8.07;1.08;;;11.70;99.90;;;;;;4972067;28;89308;-74
2023/10/28 07:17:12;;;;;;;8.35;0.75;;;11.70;99.90;;;;;;4996840;28;88004;-75
2023/10/28 07:19:38;;;;;;;7.68;1.08;;;11.70;99.90;;;;;;4981063;28;87477;-74
2023/10/28 07:22:04;;;;;;;5.15;0.82;;;11.70;99.90;;;;;;4979085;28;90635;-74
2023/10/28 07:24:29;;;;;;;6.35;1.30;;;11.80;99.90;;;;;;4981451;28;88591;-74
2023/10/28 07:26:55;;;;;;;8.40;1.80;;;11.80;99.90;;;;;;4979974;28;90306;-74
2023/10/28 07:29:20;;;;;;;10.02;1.02;;;11.80;99.90;;;;;;4981957;28;88385;-74
2023/10/28 07:31:47;;;;;;;8.30;0.95;;;11.80;99.90;;;;;;4982223;28;87104;-75
2023/10/28 07:34:13;;;;;;;3.70;1.15;;;11.90;99.90;;;;;;4977945;28;92105;-75
2023/10/28 07:36:39;;;;;;;6.43;1.83;;;11.90;99.90;;;;;;4980037;28;89662;-74
2023/10/28 07:39:05;;;;;;;7.10;1.00;;;11.90;99.90;;;;;;4981052;28;88271;-75
2023/10/28 07:41:31;;;;;;;9.30;2.35;;;11.90;99.90;;;;;;4984122;28;87470;-76
2023/10/28 07:43:57;;;;;;;4.90;0.85;;;12.00;99.90;;;;;;4981237;28;89738;-75
2023/10/28 07:46:38;;;;;;;8.48;1.52;;;12.00;99.90;;;;;;4979911;28;91691;-74
2023/10/28 07:49:04;;;;;;;5.10;0.80;;;12.00;99.90;;;;;;4977257;28;87675;-74
2023/10/28 07:51:30;;;;;;;6.10;1.27;;;12.00;99.90;;;;;;4995863;28;90700;-75
2023/10/28 07:53:58;;;;;;;3.80;0.55;;;12.00;99.90;;;;;;4981296;28;89195;-74
2023/10/28 07:56:23;;;;;;;7.43;1.45;;;12.10;99.90;;;;;;4980583;28;90230;-74
2023/10/28 07:58:52;;;;;;;6.97;1.30;;;12.10;99.90;;;;;;4979092;28;87706;-74
2023/10/28 08:01:36;;;;;;;4.50;0.82;;;12.20;99.90;;;;;;4980199;28;90721;-74
2023/10/28 08:04:04;;;;;;;6.13;1.15;;;12.20;99.90;;;;;;4984158;28;92410;-74
2023/10/28 08:06:30;;;;;;;6.50;1.52;;;12.30;99.90;;;;;;4977701;28;92580;-74
2023/10/28 08:08:56;;;;;;;5.38;0.80;;;12.30;99.90;;;;;;4978660;28;87730;-75
2023/10/28 08:11:24;;;;;;;5.97;0.80;;;12.30;99.90;;;;;;4982219;28;88041;-75
2023/10/28 08:13:52;;;;;;;4.90;1.15;;;12.40;99.90;;;;;;4978662;28;91423;-78
2023/10/28 08:16:21;;;;;;;4.90;0.90;;;12.40;99.90;;;;;;4978965;28;90549;-76
2023/10/28 08:18:50;;;;;;;3.38;0.85;;;12.40;99.90;;;;;;4978699;28;87941;-76
2023/10/28 08:21:16;;;;;;;7.35;1.63;;;12.40;99.90;;;;;;4979940;28;94892;-79
2023/10/28 08:23:43;;;;;;;4.20;1.08;;;12.40;99.90;;;;;;4982529;28;89762;-78
2023/10/28 08:26:10;;;;;;;6.22;0.95;;;12.40;99.90;;;;;;4982807;28;87806;-77
2023/10/28 08:28:39;;;;;;;8.30;1.50;;;12.40;99.90;;;;;;4980207;28;88842;-77
2023/10/28 08:31:11;;;;;;;5.93;0.70;;;12.40;99.90;;;;;;4980720;28;90726;-79
2023/10/28 08:33:37;;;;;;;7.70;0.80;;;12.50;99.90;;;;;;4980539;28;92306;-77
2023/10/28 08:36:22;;;;;;;11.75;0.95;;;12.50;99.90;;;;;;4980994;28;90111;-77
2023/10/28 08:38:48;;;;;;;6.28;0.93;;;12.60;99.90;;;;;;4975769;28;87844;-78
2023/10/28 08:41:17;;;;;;;5.70;1.15;;;12.70;99.90;;;;;;4982891;28;88143;-77
2023/10/28 08:43:45;;;;;;;9.00;1.27;;;12.70;99.90;;;;;;4981079;28;88351;-78
2023/10/28 08:46:12;;;;;;;5.85;1.23;;;12.70;99.90;;;;;;4979063;28;89867;-78
2023/10/28 08:48:38;;;;;;;17.75;1.98;;;12.70;99.90;;;;;;4979873;28;88397;-78
2023/10/28 08:51:06;;;;;;;13.55;1.50;;;12.70;99.90;;;;;;4979832;28;90415;-78
2023/10/28 08:53:34;;;;;;;8.80;1.30;;;12.70;99.90;;;;;;4996245;28;92625;-77
2023/10/28 08:56:01;;;;;;;11.50;1.42;;;12.60;99.90;;;;;;4985519;28;93490;-77
2023/10/28 08:58:27;;;;;;;7.05;1.40;;;12.70;99.90;;;;;;4979385;28;89176;-77
2023/10/28 09:00:54;;;;;;;8.40;1.10;;;12.80;99.90;;;;;;4995308;28;90128;-79
2023/10/28 09:03:25;;;;;;;12.60;3.30;;;12.90;99.90;;;;;;5474411;22;89784;-79
2023/10/28 09:05:52;;;;;;;4.45;0.68;;;13.00;99.90;;;;;;5426709;22;91566;-76
2023/10/28 09:08:19;;;;;;;8.10;1.60;;;13.00;99.90;;;;;;5612711;22;88496;-78
2023/10/28 09:10:48;;;;;;;6.38;1.50;;;13.10;99.90;;;;;;4980187;28;90128;-79
2023/10/28 09:13:16;;;;;;;8.27;1.00;;;13.10;99.90;;;;;;4985135;28;88883;-79
2023/10/28 09:15:42;;;;;;;9.38;1.33;;;13.10;99.90;;;;;;4991680;28;91797;-77
2023/10/28 09:18:08;;;;;;;17.98;2.15;;;13.30;99.90;;;;;;4982161;28;89256;-76
2023/10/28 09:20:43;;;;;;;24.00;2.45;;;13.30;99.90;;;;;;4982789;28;87742;-76
2023/10/28 09:23:09;;;;;;;14.48;2.53;;;13.40;99.90;;;;;;4981264;28;87843;-75
2023/10/28 09:25:36;;;;;;;8.20;1.30;;;13.50;99.90;;;;;;4976680;28;91349;-75
2023/10/28 09:28:07;;;;;;;4.70;1.00;;;13.60;99.90;;;;;;4979923;28;88301;-75
2023/10/28 09:30:46;;;;;;;20.63;1.65;;;13.60;99.90;;;;;;4981441;28;87705;-75
2023/10/28 09:33:13;;;;;;;5.03;1.67;;;13.70;99.90;;;;;;4979286;28;89736;-74
2023/10/28 09:35:45;;;;;;;11.43;1.77;;;13.70;99.90;;;;;;4981016;28;87785;-75
2023/10/28 09:38:11;;;;;;;7.30;1.10;;;13.80;99.90;;;;;;4974691;28;87930;-71
2023/10/28 09:40:37;;;;;;;11.13;1.45;;;13.80;99.90;;;;;;4980045;28;90420;-76
2023/10/28 09:43:04;;;;;;;5.38;0.90;;;13.90;99.90;;;;;;4981607;28;92155;-76
2023/10/28 09:45:31;;;;;;;8.18;2.20;;;14.00;99.90;;;;;;4984055;28;87855;-75
2023/10/28 09:48:01;;;;;;;18.88;3.53;;;14.00;99.90;;;;;;4984118;28;88063;-73
2023/10/28 09:50:30;;;;;;;7.65;1.40;;;14.10;99.90;;;;;;4985412;28;91286;-74
2023/10/28 09:52:57;;;;;;;22.58;2.47;;;14.10;99.90;;;;;;4985409;28;89411;-74
2023/10/28 09:55:42;;;;;;;19.27;3.17;;;14.10;99.90;;;;;;4985593;28;91897;-76
2023/10/28 09:58:41;;;;;;;11.18;1.77;;;14.10;99.90;;;;;;4976026;27;88125;-74
2023/10/28 10:01:50;;;;;;;7.93;1.30;;;14.00;99.90;;;;;;4980776;28;90868;-74
2023/10/28 10:04:24;;;;;;;10.60;1.77;;;14.00;99.90;;;;;;4975550;28;91240;-75
2023/10/28 10:06:53;;;;;;;6.88;1.20;;;14.10;99.90;;;;;;4983234;28;87586;-74
2023/10/28 10:09:18;;;;;;;9.50;1.83;;;14.10;99.90;;;;;;4981725;28;88938;-74
2023/10/28 10:11:45;;;;;;;12.43;2.20;;;14.20;99.90;;;;;;4982899;28;90708;-74
2023/10/28 10:14:13;;;;;;;12.05;1.80;;;14.20;99.90;;;;;;4980520;28;92070;-74
2023/10/28 10:17:00;;;;;;;11.68;2.17;;;14.30;99.90;;;;;;4981621;28;88166;-74
2023/10/28 10:19:44;;;;;;;10.88;1.95;;;14.30;99.90;;;;;;4982238;28;94738;-74
2023/10/28 10:22:11;;;;;;;11.88;1.95;;;14.40;99.90;;;;;;4981059;28;87871;-74
2023/10/28 10:24:51;;;;;;;12.27;2.05;;;14.50;99.90;;;;;;4982753;28;88195;-74
2023/10/28 10:27:44;;;;;;;12.00;1.73;;;14.60;99.90;;;;;;4983790;28;89028;-71
2023/10/28 10:30:10;;;;;;;9.68;1.83;;;14.60;99.90;;;;;;4981019;28;87979;-72
2023/10/28 10:33:00;;;;;;;10.40;1.70;;;14.70;99.90;;;;;;4983326;28;88729;-73
2023/10/28 10:35:33;;;;;;;8.45;1.80;;;14.70;99.90;;;;;;4986373;28;92045;-73
2023/10/28 10:38:10;;;;;;;12.98;1.58;;;14.70;99.90;;;;;;4982743;28;93498;-74
2023/10/28 10:40:41;;;;;;;14.90;2.22;;;14.80;99.90;;;;;;4976837;28;87475;-73
2023/10/28 10:43:10;;;;;;;15.65;2.17;;;14.90;99.90;;;;;;4970526;28;90097;-72
2023/10/28 10:45:36;;;;;;;21.83;3.15;;;14.90;99.90;;;;;;4983046;28;91405;-72
2023/10/28 10:48:08;;;;;;;13.10;2.22;;;15.00;99.90;;;;;;4983530;28;91164;-71
2023/10/28 10:50:37;;;;;;;23.08;2.55;;;15.10;99.90;;;;;;4983446;28;88042;-73
2023/10/28 10:53:05;;;;;;;14.48;2.40;;;15.20;99.90;;;;;;4981327;28;89262;-73
2023/10/28 10:55:34;;;;;;;15.95;1.60;;;15.20;99.90;;;;;;4982688;28;88261;-74
2023/10/28 10:58:00;;;;;;;11.07;2.30;;;15.30;99.90;;;;;;4980532;28;91388;-74
2023/10/28 11:00:28;;;;;;;10.65;2.05;;;15.30;99.90;;;;;;4981287;28;88519;-73
2023/10/28 11:02:58;;;;;;;9.00;1.75;;;15.40;99.90;;;;;;4981091;28;90049;-76
2023/10/28 11:05:27;;;;;;;11.18;1.58;;;15.50;99.90;;;;;;4984593;28;88857;-74
2023/10/28 11:07:53;;;;;;;17.63;2.95;;;15.50;99.90;;;;;;4981235;28;91347;-72
2023/10/28 11:10:22;;;;;;;12.27;2.25;;;15.40;99.90;;;;;;4983826;28;88055;-72
2023/10/28 11:12:49;;;;;;;10.82;1.85;;;15.40;99.90;;;;;;4983535;28;87736;-74
2023/10/28 11:15:15;;;;;;;16.73;1.83;;;15.40;99.90;;;;;;4981108;28;91244;-74
2023/10/28 11:17:41;;;;;;;33.42;4.38;;;15.50;99.90;;;;;;4973317;28;91329;-73
2023/10/28 11:20:09;;;;;;;22.33;3.67;;;15.50;99.90;;;;;;4985322;28;88429;-72
2023/10/28 11:25:10;;;;;;;11.88;2.08;;;15.60;99.90;;;;;;5858135;22;89490;-75
2023/10/28 11:27:37;;;;;;;11.18;2.20;;;15.60;99.90;;;;;;5003818;28;92323;-76
2023/10/28 11:30:16;;;;;;;16.02;1.92;;;15.60;99.90;;;;;;5010946;28;87602;-74
2023/10/28 11:32:41;;;;;;;14.65;1.80;;;15.70;99.90;;;;;;5012341;28;88066;-74
2023/10/28 11:35:30;;;;;;;11.85;2.40;;;15.70;99.90;;;;;;5008219;28;88381;-71
2023/10/28 11:38:02;;;;;;;15.20;2.00;;;15.70;99.90;;;;;;4988268;28;87791;-75
2023/10/28 11:40:46;;;;;;;9.75;1.92;;;15.70;99.90;;;;;;5010313;28;87811;-75
2023/10/28 11:43:31;;;;;;;;;;;15.80;99.90;;;;;;4991534;28;90409;-77
2023/10/28 11:48:59;;;;;;;6.45;1.50;;;16.10;99.90;;;;;;5059864;22;88536;-74
2023/10/28 11:51:27;;;;;;;15.35;2.75;;;16.20;99.90;;;;;;5010768;28;88433;-74
2023/10/28 11:53:53;;;;;;;12.60;2.28;;;16.30;99.90;;;;;;5004291;27;88478;-76
2023/10/28 11:56:19;;;;;;;9.55;1.70;;;16.40;99.90;;;;;;5007591;28;90055;-75
2023/10/28 11:58:45;;;;;;;12.10;1.60;;;16.50;99.90;;;;;;5022371;27;87416;-76
2023/10/28 12:01:11;;;;;;;10.40;1.27;;;16.40;99.90;;;;;;5027699;27;87658;-73
2023/10/28 12:06:12;;;;;;;7.18;1.50;;;16.20;99.90;;;;;;5080252;22;87841;-75
2023/10/28 12:08:37;;;;;;;8.32;1.60;;;16.10;99.90;;;;;;4976270;28;91319;-72
2023/10/28 12:11:03;;;;;;;11.20;1.52;;;16.10;99.90;;;;;;4973011;28;88198;-75
2023/10/28 12:13:31;;;;;;;9.45;1.27;;;16.20;99.90;;;;;;4979493;28;87172;-78
2023/10/28 12:15:56;;;;;;;11.68;1.90;;;16.30;99.90;;;;;;4975393;28;90651;-78
2023/10/28 12:18:23;;;;;;;8.77;1.88;;;16.30;99.90;;;;;;4959406;28;92391;-77
2023/10/28 12:20:49;;;;;;;7.32;1.17;;;16.30;99.90;;;;;;4970000;28;87797;-78
2023/10/28 12:23:19;;;;;;;7.10;1.17;;;16.20;99.90;;;;;;4972069;28;88254;-77
2023/10/28 12:25:47;;;;;;;8.82;1.50;;;16.20;99.90;;;;;;4973276;28;90582;-74
2023/10/28 12:28:13;;;;;;;6.97;1.15;;;16.20;99.90;;;;;;4985969;28;88980;-77
2023/10/28 12:30:41;;;;;;;7.25;1.25;;;16.20;99.90;;;;;;4970790;28;87796;-78
2023/10/28 12:33:11;;;;;;;10.98;1.52;;;16.20;99.90;;;;;;4965391;28;89268;-76
2023/10/28 12:35:36;;;;;;;5.50;0.93;;;16.20;99.90;;;;;;4966129;28;91666;-77
2023/10/28 12:38:22;;;;;;;6.82;1.20;;;16.10;99.90;;;;;;4972059;28;89229;-77
2023/10/28 12:40:48;;;;;;;7.32;1.08;;;16.00;99.90;;;;;;4983539;28;89111;-75
2023/10/28 12:43:14;;;;;;;5.53;1.33;;;16.10;99.90;;;;;;4986171;28;87978;-77
2023/10/28 12:45:40;;;;;;;7.00;1.35;;;16.00;99.90;;;;;;4983908;28;88200;-77
2023/10/28 12:48:06;;;;;;;8.07;1.30;;;15.90;99.90;;;;;;4985099;28;88057;-76
2023/10/28 12:50:34;;;;;;;9.52;0.98;;;16.00;99.90;;;;;;4977710;28;87936;-76
2023/10/28 12:53:00;;;;;;;4.35;0.70;;;16.20;99.90;;;;;;4973302;28;90321;-78
2023/10/28 12:55:26;;;;;;;6.40;0.80;;;16.40;99.90;;;;;;4989780;28;88715;-77
2023/10/28 12:57:54;;;;;;;3.85;0.95;;;16.60;99.90;;;;;;4992098;28;87646;-79